This is the latest recevied weather packets stored in our database for station/object OK1VCF-8. If no packets are shown the sender has not sent any weather packets the latest 1 day(s).
| Time | Temp. | Humidity | Pressure | Rain* | Wind** | Luminosity | Snow |
|---|---|---|---|---|---|---|---|
| 1778006070 | 17.78° C | 62% | 1004.8 hPa | - | 0 m/s | - | - |
| 1778005632 | 17.78° C | 62% | 1004.7 hPa | - | 0 m/s | - | - |
| 1778005193 | 18.33° C | 62% | 1004.8 hPa | - | 0 m/s | - | - |
| 1778004754 | 18.89° C | 60% | 1004.6 hPa | - | 0 m/s | - | - |
| 1778004316 | 18.89° C | 57% | 1004.7 hPa | - | 0 m/s | - | - |
| 1778003873 | 18.89° C | 56% | 1004.8 hPa | - | 0 m/s | - | - |
| 1778002573 | 20° C | 54% | 1005 hPa | - | 0 m/s | - | - |
| 1778002134 | 20° C | 55% | 1005.2 hPa | - | 0 m/s | - | - |
| 1778001531 | 20° C | 56% | 1005.4 hPa | - | 0 m/s | - | - |
| 1778001091 | 20.56° C | 56% | 1005.4 hPa | - | 0 m/s | - | - |
| 1778000651 | 20.56° C | 54% | 1005.6 hPa | - | 0 m/s | - | - |
| 1778000210 | 21.11° C | 52% | 1005.6 hPa | - | 0 m/s | - | - |
| 1777999772 | 21.11° C | 52% | 1005.6 hPa | - | 0 m/s | - | - |
| 1777999332 | 21.11° C | 51% | 1005.8 hPa | - | 0 m/s | - | - |
| 1777998893 | 22.22° C | 49% | 1005.6 hPa | - | 0 m/s | - | - |
| 1777998454 | 22.78° C | 47% | 1005.6 hPa | - | 0 m/s | - | - |
| 1777998015 | 24.44° C | 42% | 1005.4 hPa | - | 0 m/s | - | - |
| 1777997576 | 27.78° C | 36% | 1005.2 hPa | - | 0 m/s | - | - |
| 1777997137 | 30° C | 33% | 1005.1 hPa | - | 0 m/s | - | - |
| 1777996695 | 30° C | 32% | 1005.1 hPa | - | 0 m/s | - | - |
| 1777996256 | 30° C | 32% | 1005 hPa | - | 0 m/s | - | - |
| 1777995818 | 30° C | 30% | 1005.2 hPa | - | 0 m/s | - | - |
| 1777995379 | 31.11° C | 28% | 1005.2 hPa | - | 0 m/s | - | - |
| 1777994776 | 30° C | 30% | 1005.5 hPa | - | 0 m/s | - | - |
| 1777994337 | 33.33° C | 26% | 1005.6 hPa | - | 0 m/s | - | - |
* Rain since midnight (hover to see other rain measurements)
** Current wind speed in m/s (hover to see current wind gust speed)